x

Central Aleutians 230nm Sw Dutch Harbor (46072) Wave Buoy

5:50pm - Mon 30th May 2016 All times are UTC.

  • Sig Wave height 14.8ft
  • Swell Direction
  • Peak Period 11s
  • Average Period 8s
  • Wind
    18mph, 22mph gusts
  • Sea Temp 45°f
  • Air Temp 44°f
  • Sea Pressure 984.4mb

More Historic Weather Station data

Upgrade to MSW Pro to gain access to the past 30 days of data for over 8000 Wavebouys and Weather Stations around the globe.

Join Pro

Comparision Forecast

View Surf forecast
   
Mon 05/30 5:50pm 15ft 11s 8s 18 22 mph 984.4mb 45f 44f
4:50pm 16.5ft 11s 8s 20 25 mph 983.9mb 45f 44f
3:50pm 16.5ft 11s 8s 20 27 mph 983.9mb 45f 44f
2:50pm 15.5ft 9s 8s 27 34 mph 983.9mb 45f 44f
1:50pm 17ft 10s 8s 34 43 mph 984.2mb 45f 44f
12:50pm 16.5ft 9s 7s 38 45 mph 985mb 45f 44f
11:50am 15ft 8s 7s 36 45 mph 986.7mb 45f 44f
10:50am 13ft 8s 6s 38 47 mph 987.9mb 45f 45f
9:50am 11.5ft 8s 6s 38 47 mph 989.6mb 44f 45f
8:50am 10ft 7s 6s 36 43 mph 991.8mb 45f 45f
7:50am 9ft 6s 5s 34 40 mph 994.1mb 45f 45f
6:50am 8.5ft 6s 5s 31 38 mph 994.8mb 45f 45f
5:50am 7.5ft 6s 5s 31 38 mph 996.1mb 45f 45f
4:50am 6.5ft 6s 5s 29 36 mph 997.7mb 45f 44f
3:50am 6ft 6s 5s 25 29 mph 1000.2mb 45f 44f
2:50am 6.5ft 6s 5s 22 27 mph 1001.5mb 46f 44f
1:50am 6.5ft 6s 5s 25 29 mph 1002.5mb 46f 44f
12:50am 6ft 5s 5s 25 31 mph 1003.3mb 46f 44f
Sun 05/29 10:50pm 4.5ft 5s 4s 27 34 mph 1005.2mb 45f 44f
9:50pm 4.5ft 4s 4s 25 29 mph 1005.9mb 45f 44f
8:50pm 4ft 8s 5s 22 25 mph 1006.9mb 46f 44f
7:50pm 3.5ft 8s 5s 20 25 mph 1008mb 46f 44f
6:50pm 3.5ft 8s 5s 18 20 mph 1008.6mb 46f 44f
5:50pm 3.5ft 8s 5s 18 20 mph 1009.3mb 46f 44f
4:50pm 3.5ft 8s 5s 16 18 mph 1009.7mb 46f 44f
3:50pm 3.5ft 8s 6s 16 18 mph 1009.9mb 46f 44f
2:50pm 3.5ft 8s 6s 13 16 mph 1010.3mb 46f 44f
1:50pm 3.5ft 8s 7s 11
mph
1010.6mb 45f 44f
12:50pm 3.5ft 8s 7s 9
mph
1011.4mb 45f 44f
11:50am 3.5ft 8s 7s 9 11 mph 1011.5mb 45f 44f
10:50am 3.5ft 8s 7s 7 9 mph 1011.8mb 46f 44f
9:50am 3.5ft 8s 7s 7 9 mph 1011.9mb 46f 44f
8:50am 3.5ft 8s 7s 7
mph
1012mb 46f 43f
7:50am 3.5ft 8s 7s 4 7 mph 1012.1mb 46f 43f
6:50am 4ft 8s 7s 4 7 mph 1012.2mb 47f 43f
5:50am 3.5ft 8s 7s 9
mph
1012.1mb 47f 43f
4:50am 3.5ft 8s 7s 7
mph
1012.2mb 47f 44f
3:50am 4ft 8s 7s 4 7 mph 1012mb 47f 44f
2:50am 4ft 8s 7s 4 7 mph 1012mb 47f 44f
1:50am 4ft 8s 7s 4
mph
1012.3mb 46f 44f
12:50am 4.5ft 8s 7s 4 7 mph 1012.3mb 46f 44f
Sat 05/28 11:50pm 4.5ft 8s 7s 4 7 mph 1012.6mb 46f 44f
10:50pm 4ft 8s 7s 2 4 mph 1012.5mb 46f 43f
9:50pm 4.5ft 8s 7s 2 4 mph 1012.3mb 46f 43f
8:50pm 4.5ft 8s 7s 4 7 mph 1012.3mb 45f 43f
7:50pm 4.5ft 9s 7s 4
mph
1012.4mb 45f 43f
6:50pm 4ft 9s 7s 4
mph
1012.4mb 45f 43f
5:50pm 4.5ft 9s 6s 2 4 mph 1012mb 45f 43f
4:50pm 5ft 9s 7s 4
mph
1011.9mb 45f 43f
3:50pm 4.5ft 9s 6s 4 7 mph 1011.9mb 45f 43f
2:50pm 5ft 9s 7s 2 4 mph 1011.9mb 45f 43f
1:50pm 5ft 9s 7s 7
mph
1011.7mb 45f 43f
12:50pm 5ft 9s 7s 7 9 mph 1012.3mb 45f 43f
11:50am 5ft 9s 7s 9
mph
1012.3mb 45f 43f
10:50am 5ft 9s 7s 9 11 mph 1012.9mb 45f 43f
9:50am 5ft 9s 7s 9 11 mph 1013.3mb 45f 43f
8:50am 5.5ft 9s 7s 9 11 mph 1013.4mb 45f 43f
7:50am 5.5ft 10s 7s 11 13 mph 1013.6mb 45f 43f
6:50am 5.5ft 10s 7s 13
mph
1013.4mb 46f 43f
5:50am 5ft 10s 7s 7 11 mph 1013.3mb 46f 44f
4:50am 5ft 10s 7s 4 7 mph 1013.2mb 46f 44f
3:50am 5.5ft 10s 7s 4 7 mph 1013.3mb 46f 44f
2:50am 6ft 10s 7s 9 11 mph 1013.3mb 46f 44f
1:50am 6ft 9s 7s 4 7 mph 1013.6mb 45f 44f
12:50am 6ft 10s 7s 7 9 mph 1013.9mb 45f 43f
Fri 05/27 11:50pm 7ft 10s 7s 9 11 mph 1014.4mb 45f 43f
10:50pm 7ft 9s 7s 11 13 mph 1014.5mb 45f 42f
9:50pm 7ft 11s 8s 9 11 mph 1014.4mb 45f 42f
8:50pm 7ft 9s 7s 9 11 mph 1014.5mb 45f 42f
7:50pm 7ft 11s 7s 9
mph
1014.2mb 45f 42f
6:50pm 8ft 11s 8s 7 9 mph 1014.1mb 45f 41f
5:50pm 7.5ft 11s 8s 7 9 mph 1013.9mb 45f 41f
4:50pm 9ft 11s 8s 4
mph
1013.9mb 45f 41f
3:50pm 8ft 11s 8s  -  2 mph 1013.7mb 45f 42f
2:50pm 8ft 11s 8s 2 4 mph 1013.5mb 45f 42f
1:50pm 8.5ft 11s 8s 4
mph
1013.5mb 45f 42f
12:50pm 9ft 11s 8s 4 7 mph 1013.7mb 45f 43f
11:50am 10ft 11s 9s 4 7 mph 1013.8mb 45f 43f
10:50am 9.5ft 11s 8s 7 9 mph 1013.8mb 45f 43f
9:50am 8.5ft 11s 8s 9 11 mph 1014.1mb 45f 43f
8:50am 10ft 11s 8s 7 9 mph 1013.9mb 45f 43f
7:50am 9ft 11s 8s 7 11 mph 1013.5mb 45f 43f
6:50am 9ft 12s 8s 9
mph
1013.3mb 45f 43f
5:50am 8.5ft 11s 8s 9 11 mph 1012.9mb 45f 43f
4:50am 9ft 12s 8s 9 11 mph 1012.9mb 45f 44f
3:50am 8ft 12s 7s 11 13 mph 1013mb 45f 44f
2:50am 9ft 10s 7s 9 13 mph 1013.2mb 45f 44f
1:50am 10ft 11s 7s 13 16 mph 1013.3mb 45f 44f
12:50am 10ft 11s 7s 13 16 mph 1013.4mb 45f 44f
Thu 05/26 10:50pm 12ft 10s 7s 16 20 mph 1013.3mb 45f 42f
9:50pm 11ft 11s 7s 18 20 mph 1013.1mb 45f 42f
8:50pm 11ft 10s 7s 18 22 mph 1012.9mb 45f 42f
7:50pm 11ft 11s 7s 25 29 mph 1012.4mb 45f 43f